Time;durP1;ratioP1;P1;durP2;ratioP2;P2;SDS_P1;SDS_P2;PMS_P1;PMS_P2;Temp;Humidity;BMP_temperature;BMP_pressure;BME280_temperature;BME280_humidity;BME280_pressure;Samples;Min_cycle;Max_cycle;Signal;HPM_P1;HPM_P2
2021/12/31 00:00:46;;;;;;;;;;;9.90;99.90;;;;;;5091750;28;19915;-76
2021/12/31 00:03:12;;;;;;;;;;;9.90;99.90;;;;;;5091238;28;19920;-76
2021/12/31 00:05:38;;;;;;;;;;;9.90;99.90;;;;;;5092085;28;20014;-76
2021/12/31 00:08:03;;;;;;;;;;;9.70;99.90;;;;;;5091525;28;19981;-76
2021/12/31 00:10:29;;;;;;;;;;;9.70;99.90;;;;;;5091575;28;19931;-76
2021/12/31 00:12:56;;;;;;;;;;;9.60;99.90;;;;;;5091247;28;19915;-76
2021/12/31 00:15:22;;;;;;;;;;;9.60;99.90;;;;;;5073140;28;19939;-76
2021/12/31 00:17:48;;;;;;;;;;;9.40;99.90;;;;;;5091427;28;20357;-76
2021/12/31 00:20:17;;;;;;;;;;;9.30;99.90;;;;;;5091569;28;19908;-76
2021/12/31 00:23:04;;;;;;;;;;;9.20;99.90;;;;;;5073343;28;19909;-76
2021/12/31 00:25:34;;;;;;;;;;;9.00;99.90;;;;;;5091403;28;19912;-76
2021/12/31 00:28:00;;;;;;;;;;;8.90;99.90;;;;;;5091367;28;20257;-76
2021/12/31 00:30:25;;;;;;;;;;;8.80;99.90;;;;;;5090779;28;19954;-76
2021/12/31 00:32:51;;;;;;;;;;;8.60;99.90;;;;;;5088666;28;19966;-76
2021/12/31 00:35:17;;;;;;;;;;;8.60;99.90;;;;;;5087382;28;19916;-75
2021/12/31 00:37:42;;;;;;;;;;;8.60;99.90;;;;;;5087159;28;20307;-76
2021/12/31 00:40:09;;;;;;;;;;;8.50;99.90;;;;;;5091179;28;19916;-76
2021/12/31 00:42:35;;;;;;;;;;;8.50;99.90;;;;;;5090509;28;19908;-75
2021/12/31 00:45:01;;;;;;;;;;;8.50;99.90;;;;;;5090579;28;19946;-75
2021/12/31 00:47:26;;;;;;;;;;;8.50;99.90;;;;;;5090970;28;19953;-76
2021/12/31 00:49:52;;;;;;;;;;;8.60;99.90;;;;;;5091163;28;20364;-76
2021/12/31 00:52:17;;;;;;;;;;;8.50;99.90;;;;;;5090782;28;19995;-75
2021/12/31 00:54:44;;;;;;;;;;;8.50;99.90;;;;;;5090619;28;19912;-75
2021/12/31 00:57:10;;;;;;;;;;;8.50;99.90;;;;;;5091316;28;19915;-75
2021/12/31 00:59:35;;;;;;;;;;;8.50;99.90;;;;;;5095191;28;20276;-75
2021/12/31 01:02:04;;;;;;;;;;;8.50;99.90;;;;;;5095498;28;19912;-75
2021/12/31 01:04:30;;;;;;;;;;;8.50;99.90;;;;;;5094632;28;19908;-75
2021/12/31 01:06:57;;;;;;;;;;;8.50;99.90;;;;;;5094091;28;19921;-76
2021/12/31 01:09:23;;;;;;;;;;;8.40;99.90;;;;;;5090471;28;19908;-75
2021/12/31 01:11:49;;;;;;;;;;;8.40;99.90;;;;;;5076867;28;19916;-75
2021/12/31 01:14:29;;;;;;;;;;;8.30;99.90;;;;;;5094294;28;19920;-76
2021/12/31 01:17:00;;;;;;;;;;;8.20;99.90;;;;;;5094930;28;19914;-75
2021/12/31 01:21:54;;;;;;;;;;;8.00;99.90;;;;;;5095206;28;19908;-75
2021/12/31 01:24:23;;;;;;;;;;;7.90;99.90;;;;;;5076093;28;19958;-75
2021/12/31 01:26:48;;;;;;;;;;;7.90;99.90;;;;;;5076564;28;19947;-76
2021/12/31 01:29:14;;;;;;;;;;;7.90;99.90;;;;;;5094534;28;20420;-75
2021/12/31 01:31:39;;;;;;;;;;;7.80;99.90;;;;;;5094718;28;19962;-75
2021/12/31 01:34:05;;;;;;;;;;;7.70;99.90;;;;;;5093851;28;20323;-75
2021/12/31 01:36:31;;;;;;;;;;;7.70;99.90;;;;;;5072890;28;20002;-75
2021/12/31 01:38:56;;;;;;;;;;;7.60;99.90;;;;;;5076024;28;19951;-75
2021/12/31 01:41:22;;;;;;;;;;;7.60;99.90;;;;;;5094908;28;19963;-75
2021/12/31 01:43:48;;;;;;;;;;;7.70;99.90;;;;;;5094440;28;19942;-75
2021/12/31 01:46:13;;;;;;;;;;;7.50;99.90;;;;;;5094324;28;20292;-75
2021/12/31 01:49:01;;;;;;;;;;;7.50;99.90;;;;;;5075991;28;19908;-75
2021/12/31 01:51:27;;;;;;;;;;;7.50;99.90;;;;;;5094321;28;19909;-75
2021/12/31 01:53:53;;;;;;;;;;;7.50;99.90;;;;;;5093740;28;19908;-75
2021/12/31 01:56:18;;;;;;;;;;;7.60;99.90;;;;;;5094219;28;19912;-75
2021/12/31 01:58:46;;;;;;;;;;;7.50;99.90;;;;;;5094220;28;19908;-75
2021/12/31 02:01:12;;;;;;;;;;;7.50;99.90;;;;;;5093549;28;19931;-75
2021/12/31 02:03:38;;;;;;;;;;;7.50;99.90;;;;;;5093644;28;20353;-76
2021/12/31 02:06:04;;;;;;;;;;;7.40;99.90;;;;;;5075039;28;19920;-75
2021/12/31 02:08:29;;;;;;;;;;;7.40;99.90;;;;;;5093684;28;19909;-75
2021/12/31 02:10:55;;;;;;;;;;;7.30;99.90;;;;;;5093783;28;19915;-75
2021/12/31 02:13:21;;;;;;;;;;;7.30;99.90;;;;;;5093464;28;20272;-75
2021/12/31 02:15:46;;;;;;;;;;;7.40;99.90;;;;;;5093473;28;20377;-75
2021/12/31 02:18:12;;;;;;;;;;;7.30;99.90;;;;;;5093825;28;19954;-75
2021/12/31 02:20:44;;;;;;;;;;;7.00;99.90;;;;;;5093655;28;20002;-75
2021/12/31 02:23:34;;;;;;;;;;;7.10;99.90;;;;;;5075156;28;19908;-75
2021/12/31 02:26:00;;;;;;;;;;;7.00;99.90;;;;;;5075347;28;20438;-75
2021/12/31 02:28:26;;;;;;;;;;;7.10;99.90;;;;;;5093505;28;19911;-75
2021/12/31 02:30:54;;;;;;;;;;;7.00;99.90;;;;;;5093410;28;19938;-75
2021/12/31 02:33:20;;;;;;;;;;;7.00;99.90;;;;;;5093055;28;19938;-75
2021/12/31 02:35:45;;;;;;;;;;;7.10;99.90;;;;;;5093429;28;20187;-75
2021/12/31 02:38:11;;;;;;;;;;;7.00;99.90;;;;;;5093013;28;20360;-75
2021/12/31 02:40:36;;;;;;;;;;;7.00;99.90;;;;;;5088188;28;19914;-75
2021/12/31 02:43:02;;;;;;;;;;;7.10;99.90;;;;;;5093150;28;19919;-75
2021/12/31 02:45:31;;;;;;;;;;;7.00;99.90;;;;;;5093380;28;19991;-75
2021/12/31 02:48:00;;;;;;;;;;;6.90;99.90;;;;;;5094524;28;19943;-75
2021/12/31 02:50:33;;;;;;;;;;;6.90;99.90;;;;;;5093220;28;19933;-75
2021/12/31 02:52:59;;;;;;;;;;;7.00;99.90;;;;;;5092982;28;19908;-75
2021/12/31 02:55:26;;;;;;;;;;;6.90;99.90;;;;;;5074517;28;20364;-75
2021/12/31 02:57:52;;;;;;;;;;;6.90;99.90;;;;;;5093140;28;20392;-75
2021/12/31 03:00:18;;;;;;;;;;;6.90;99.90;;;;;;5092985;28;19915;-75
2021/12/31 03:02:44;;;;;;;;;;;6.90;99.90;;;;;;5092799;28;19916;-75
2021/12/31 03:05:10;;;;;;;;;;;7.00;99.90;;;;;;5074312;28;19912;-75
2021/12/31 03:07:36;;;;;;;;;;;6.90;99.90;;;;;;5091742;28;19915;-74
2021/12/31 03:10:03;;;;;;;;;;;6.80;99.90;;;;;;5092690;28;19955;-75
2021/12/31 03:12:29;;;;;;;;;;;6.90;99.90;;;;;;5092603;28;19908;-74
2021/12/31 03:14:55;;;;;;;;;;;6.80;99.90;;;;;;5092223;28;20051;-75
2021/12/31 03:17:20;;;;;;;;;;;6.70;99.90;;;;;;5092568;28;19912;-75
2021/12/31 03:19:46;;;;;;;;;;;6.70;99.90;;;;;;5092512;28;20396;-75
2021/12/31 03:22:12;;;;;;;;;;;6.70;99.90;;;;;;5092448;28;19908;-75
2021/12/31 03:24:37;;;;;;;;;;;6.50;99.90;;;;;;5092180;28;19955;-74
2021/12/31 03:27:03;;;;;;;;;;;6.50;99.90;;;;;;5092674;28;19954;-75
2021/12/31 03:29:28;;;;;;;;;;;6.40;99.90;;;;;;5092684;28;19909;-75
2021/12/31 03:31:54;;;;;;;;;;;6.30;99.90;;;;;;5092520;28;20360;-75
2021/12/31 03:34:19;;;;;;;;;;;6.20;99.90;;;;;;5092296;28;19917;-75
2021/12/31 03:36:45;;;;;;;;;;;6.20;99.90;;;;;;5092374;28;20476;-75
2021/12/31 03:39:11;;;;;;;;;;;6.10;99.90;;;;;;5091922;28;19908;-75
2021/12/31 03:41:36;;;;;;;;;;;6.20;99.90;;;;;;5092392;28;19908;-75
2021/12/31 03:44:03;;;;;;;;;;;6.10;99.90;;;;;;5091809;28;19908;-74
2021/12/31 03:46:28;;;;;;;;;;;6.10;99.90;;;;;;5092295;28;20026;-75
2021/12/31 03:48:54;;;;;;;;;;;6.10;99.90;;;;;;5092273;28;20368;-74
2021/12/31 03:51:19;;;;;;;;;;;6.10;99.90;;;;;;5074115;28;20287;-75
2021/12/31 03:53:45;;;;;;;;;;;6.10;99.90;;;;;;5092052;28;19912;-74
2021/12/31 03:56:10;;;;;;;;;;;6.10;99.90;;;;;;5092136;28;19919;-75
2021/12/31 03:58:36;;;;;;;;;;;6.00;99.90;;;;;;5091977;28;19912;-75
2021/12/31 04:01:02;;;;;;;;;;;5.90;99.90;;;;;;5092220;28;19940;-75
2021/12/31 04:03:27;;;;;;;;;;;5.90;99.90;;;;;;5091417;28;20276;-75
2021/12/31 04:05:53;;;;;;;;;;;5.80;99.90;;;;;;5091949;28;19912;-75
2021/12/31 04:08:19;;;;;;;;;;;5.80;99.90;;;;;;5091216;28;19973;-74
2021/12/31 04:10:45;;;;;;;;;;;5.80;99.90;;;;;;5073484;28;19914;-74
2021/12/31 04:13:10;;;;;;;;;;;5.70;99.90;;;;;;5073177;28;19908;-75
2021/12/31 04:15:36;;;;;;;;;;;5.80;99.90;;;;;;5091619;28;19971;-75
2021/12/31 04:18:01;;;;;;;;;;;5.80;99.90;;;;;;5091540;28;20281;-75
2021/12/31 04:20:36;;;;;;;;;;;5.70;99.90;;;;;;5091469;28;20057;-74
2021/12/31 04:23:03;;;;;;;;;;;5.50;99.90;;;;;;5091197;28;19916;-74
2021/12/31 04:25:29;;;;;;;;;;;5.50;99.90;;;;;;5091411;28;19912;-74
2021/12/31 04:27:54;;;;;;;;;;;5.60;99.90;;;;;;5091356;28;19940;-75
2021/12/31 04:30:20;;;;;;;;;;;5.60;99.90;;;;;;5091732;28;20458;-75
2021/12/31 04:32:46;;;;;;;;;;;5.80;99.90;;;;;;5072362;28;19965;-75
2021/12/31 04:35:12;;;;;;;;;;;6.00;99.90;;;;;;5090837;28;19919;-75
2021/12/31 04:37:42;;;;;;;;;;;6.20;99.90;;;;;;5087677;28;19916;-75
2021/12/31 04:40:11;;;;;;;;;;;6.30;99.90;;;;;;5090916;28;19909;-74
2021/12/31 04:42:41;;;;;;;;;;;6.40;99.90;;;;;;5091199;28;19908;-75
2021/12/31 04:45:07;;;;;;;;;;;6.30;99.90;;;;;;5091025;28;20284;-75
2021/12/31 04:47:34;;;;;;;;;;;6.40;99.90;;;;;;5091712;28;19908;-75
2021/12/31 04:49:59;;;;;;;;;;;6.30;99.90;;;;;;5091114;28;20394;-75
2021/12/31 04:52:24;;;;;;;;;;;6.00;99.90;;;;;;5091246;28;19908;-75
2021/12/31 04:54:50;;;;;;;;;;;5.80;99.90;;;;;;5090588;28;19908;-75
2021/12/31 04:57:15;;;;;;;;;;;5.70;99.90;;;;;;5091113;28;20014;-74
2021/12/31 04:59:41;;;;;;;;;;;5.70;99.90;;;;;;5091112;28;20013;-75
2021/12/31 05:02:06;;;;;;;;;;;5.70;99.90;;;;;;5091119;28;19908;-75
2021/12/31 05:04:33;;;;;;;;;;;5.60;99.90;;;;;;5090719;28;19975;-75
2021/12/31 05:06:58;;;;;;;;;;;5.60;99.90;;;;;;5086957;28;20269;-75
2021/12/31 05:09:24;;;;;;;;;;;5.70;99.90;;;;;;5092451;28;19915;-74
2021/12/31 05:11:49;;;;;;;;;;;5.80;99.90;;;;;;5091538;28;20377;-75
2021/12/31 05:14:15;;;;;;;;;;;5.70;99.90;;;;;;5090573;28;19912;-75
2021/12/31 05:16:41;;;;;;;;;;;5.70;99.90;;;;;;5073075;28;19966;-75
2021/12/31 05:19:06;;;;;;;;;;;5.60;99.90;;;;;;5091040;28;19908;-74
2021/12/31 05:21:32;;;;;;;;;;;5.50;99.90;;;;;;5089379;28;19991;-75
2021/12/31 05:23:58;;;;;;;;;;;5.40;99.90;;;;;;5090779;28;19919;-75
2021/12/31 05:26:24;;;;;;;;;;;5.30;99.90;;;;;;5090881;28;19934;-74
2021/12/31 05:28:49;;;;;;;;;;;5.30;99.90;;;;;;5091151;28;19939;-75
2021/12/31 05:31:15;;;;;;;;;;;5.10;99.90;;;;;;5090958;28;20404;-75
2021/12/31 05:33:40;;;;;;;;;;;5.00;99.90;;;;;;5090452;28;19916;-74
2021/12/31 05:36:06;;;;;;;;;;;5.50;99.90;;;;;;5089815;28;19932;-75
2021/12/31 05:38:31;;;;;;;;;;;5.50;99.90;;;;;;5090656;28;20045;-75
2021/12/31 05:40:57;;;;;;;;;;;5.50;99.90;;;;;;5090599;28;20277;-74
2021/12/31 05:43:22;;;;;;;;;;;5.50;99.90;;;;;;5090947;28;20045;-75
2021/12/31 05:45:48;;;;;;;;;;;5.60;99.90;;;;;;5094302;28;19912;-75
2021/12/31 05:48:13;;;;;;;;;;;5.70;99.90;;;;;;5094469;28;19908;-75
2021/12/31 05:50:39;;;;;;;;;;;5.70;99.90;;;;;;5094393;28;19916;-75
2021/12/31 05:53:04;;;;;;;;;;;5.70;99.90;;;;;;5094302;28;19909;-75
2021/12/31 05:55:30;;;;;;;;;;;5.70;99.90;;;;;;5094220;28;20011;-75
2021/12/31 05:57:56;;;;;;;;;;;5.70;99.90;;;;;;5094416;28;20428;-75
2021/12/31 06:00:22;;;;;;;;;;;5.70;99.90;;;;;;5094154;28;20003;-75
2021/12/31 06:02:47;;;;;;;;;;;5.60;99.90;;;;;;5094130;28;19995;-75
2021/12/31 06:05:13;;;;;;;;;;;5.50;99.90;;;;;;5093886;28;20295;-75
2021/12/31 06:07:39;;;;;;;;;;;5.40;99.90;;;;;;5089719;28;19947;-75
2021/12/31 06:10:04;;;;;;;;;;;5.30;99.90;;;;;;5093774;28;20288;-75
2021/12/31 06:12:30;;;;;;;;;;;5.50;99.90;;;;;;5093813;28;20003;-75
2021/12/31 06:14:59;;;;;;;;;;;5.40;99.90;;;;;;5093529;28;20335;-75
2021/12/31 06:17:26;;;;;;;;;;;5.30;99.90;;;;;;5094321;28;20295;-75
2021/12/31 06:19:53;;;;;;;;;;;5.50;99.90;;;;;;5087279;28;19912;-75
2021/12/31 06:22:19;;;;;;;;;;;5.80;99.90;;;;;;5075050;28;19953;-75
2021/12/31 06:24:44;;;;;;;;;;;5.80;99.90;;;;;;5093344;28;19995;-75
2021/12/31 06:27:10;;;;;;;;;;;5.70;99.90;;;;;;5075527;28;20326;-75
2021/12/31 06:29:35;;;;;;;;;;;6.10;99.90;;;;;;5093802;28;20003;-75
2021/12/31 06:32:01;;;;;;;;;;;6.20;99.90;;;;;;5093438;28;19919;-75
2021/12/31 06:34:26;;;;;;;;;;;6.30;99.90;;;;;;5093273;28;19951;-75
2021/12/31 06:36:52;;;;;;;;;;;6.50;99.90;;;;;;5075405;28;20287;-75
2021/12/31 06:39:17;;;;;;;;;;;6.70;99.90;;;;;;5093869;28;20284;-75
2021/12/31 06:41:43;;;;;;;;;;;6.70;99.90;;;;;;5093607;28;19912;-75
2021/12/31 06:44:08;;;;;;;;;;;6.90;99.90;;;;;;5093046;28;19908;-75
2021/12/31 06:46:34;;;;;;;;;;;7.00;99.90;;;;;;5093377;28;19912;-75
2021/12/31 06:48:59;;;;;;;;;;;6.80;99.90;;;;;;5091921;28;19915;-75
2021/12/31 06:51:25;;;;;;;;;;;7.00;99.90;;;;;;5093271;28;19908;-75
2021/12/31 06:53:50;;;;;;;;;;;7.00;99.90;;;;;;5092418;28;19930;-74
2021/12/31 06:56:16;;;;;;;;;;;6.90;99.90;;;;;;5092347;28;20363;-75
2021/12/31 06:58:43;;;;;;;;;;;6.90;99.90;;;;;;5074884;28;19919;-75
2021/12/31 07:01:09;;;;;;;;;;;6.90;99.90;;;;;;5092980;28;20437;-75
2021/12/31 07:03:34;;;;;;;;;;;6.90;99.90;;;;;;5092571;28;19909;-75
2021/12/31 07:05:59;;;;;;;;;;;6.90;99.90;;;;;;5092971;28;19916;-75
2021/12/31 07:08:25;;;;;;;;;;;7.00;99.90;;;;;;5092731;28;19916;-75
2021/12/31 07:10:51;;;;;;;;;;;7.00;99.90;;;;;;5092929;28;19912;-76
2021/12/31 07:13:16;;;;;;;;;;;6.90;99.90;;;;;;5085806;28;19952;-75
2021/12/31 07:15:44;;;;;;;;;;;6.70;99.90;;;;;;5092693;28;19920;-75
2021/12/31 07:18:10;;;;;;;;;;;6.60;99.90;;;;;;5094099;28;20017;-75
2021/12/31 07:20:35;;;;;;;;;;;6.50;99.90;;;;;;5088803;28;20388;-75
2021/12/31 07:23:05;;;;;;;;;;;6.60;99.90;;;;;;5092196;28;20431;-76
2021/12/31 07:25:31;;;;;;;;;;;6.50;99.90;;;;;;5074505;28;19912;-76
2021/12/31 07:27:56;;;;;;;;;;;6.50;99.90;;;;;;5092869;28;19922;-74
2021/12/31 07:30:22;;;;;;;;;;;6.50;99.90;;;;;;5092499;28;20281;-75
2021/12/31 07:32:47;;;;;;;;;;;6.50;99.90;;;;;;5092599;28;19908;-75
2021/12/31 07:35:13;;;;;;;;;;;6.40;99.90;;;;;;5091961;28;19908;-75
2021/12/31 07:37:38;;;;;;;;;;;6.20;99.90;;;;;;5092456;28;19919;-75
2021/12/31 07:40:05;;;;;;;;;;;6.00;99.90;;;;;;5092348;28;19908;-75
2021/12/31 07:42:31;;;;;;;;;;;5.80;99.90;;;;;;5092496;28;19908;-75
2021/12/31 07:44:56;;;;;;;;;;;6.20;99.90;;;;;;5091568;28;19915;-75
2021/12/31 07:47:21;;;;;;;;;;;6.20;99.90;;;;;;5092402;28;19961;-76
2021/12/31 07:49:47;;;;;;;;;;;6.20;99.90;;;;;;5091322;28;19943;-75
2021/12/31 07:52:13;;;;;;;;;;;6.20;99.90;;;;;;5091947;28;19915;-75
2021/12/31 07:54:38;;;;;;;;;;;6.10;99.90;;;;;;5091595;28;19908;-75
2021/12/31 07:57:04;;;;;;;;;;;6.00;99.90;;;;;;5092224;28;19908;-75
2021/12/31 07:59:29;;;;;;;;;;;6.00;99.90;;;;;;5092057;28;20524;-76
2021/12/31 08:01:55;;;;;;;;;;;6.20;99.90;;;;;;5091899;28;19915;-75
2021/12/31 08:04:20;;;;;;;;;;;6.30;99.90;;;;;;5073024;28;20420;-75
2021/12/31 08:06:46;;;;;;;;;;;6.10;99.90;;;;;;5091397;28;19916;-76
2021/12/31 08:09:11;;;;;;;;;;;5.90;99.90;;;;;;5073673;28;19912;-75
2021/12/31 08:11:37;;;;;;;;;;;5.80;99.90;;;;;;5091896;28;20395;-75
2021/12/31 08:14:03;;;;;;;;;;;5.90;99.90;;;;;;5091151;28;19957;-75
2021/12/31 08:16:29;;;;;;;;;;;6.10;99.90;;;;;;5091780;28;20287;-75
2021/12/31 08:18:55;;;;;;;;;;;6.10;99.90;;;;;;5091104;28;20019;-75
2021/12/31 08:21:20;;;;;;;;;;;6.10;99.90;;;;;;5091805;28;19909;-75
2021/12/31 08:23:46;;;;;;;;;;;6.10;99.90;;;;;;5091138;28;19908;-75
2021/12/31 08:26:11;;;;;;;;;;;6.30;99.90;;;;;;5091586;28;19923;-75
2021/12/31 08:28:37;;;;;;;;;;;6.20;99.90;;;;;;5091597;28;19908;-75
2021/12/31 08:31:02;;;;;;;;;;;6.30;99.90;;;;;;5091479;28;19997;-76
2021/12/31 08:33:28;;;;;;;;;;;6.30;99.90;;;;;;5091091;28;20419;-75
2021/12/31 08:35:53;;;;;;;;;;;6.50;99.90;;;;;;5091374;28;19909;-75
2021/12/31 08:38:19;;;;;;;;;;;6.80;99.90;;;;;;5091598;28;20368;-75
2021/12/31 08:40:44;;;;;;;;;;;7.30;99.90;;;;;;5073260;28;20003;-76
2021/12/31 08:43:10;;;;;;;;;;;7.50;99.90;;;;;;5090971;28;19908;-76
2021/12/31 08:45:35;;;;;;;;;;;8.00;99.90;;;;;;5088179;28;19965;-76
2021/12/31 08:48:02;;;;;;;;;;;8.10;99.90;;;;;;5085141;28;20002;-76
2021/12/31 08:50:27;;;;;;;;;;;8.10;99.90;;;;;;5086033;28;19927;-76
2021/12/31 08:52:53;;;;;;;;;;;8.30;99.90;;;;;;5091177;28;19912;-76
2021/12/31 08:55:19;;;;;;;;;;;8.90;99.90;;;;;;5091116;28;19908;-76
2021/12/31 08:57:44;;;;;;;;;;;9.60;99.90;;;;;;5091082;28;19961;-76
2021/12/31 09:00:10;;;;;;;;;;;10.40;99.90;;;;;;5091368;28;20357;-76
2021/12/31 09:02:38;;;;;;;;;;;10.60;99.90;;;;;;5091189;28;20361;-75
2021/12/31 09:05:03;;;;;;;;;;;11.10;99.90;;;;;;5090610;28;19908;-76
2021/12/31 09:07:29;;;;;;;;;;;10.90;99.90;;;;;;5073052;28;20411;-76
2021/12/31 09:09:54;;;;;;;;;;;11.20;99.90;;;;;;5091193;28;20373;-76
2021/12/31 09:12:20;;;;;;;;;;;12.30;99.90;;;;;;5091809;28;19913;-76
2021/12/31 09:14:45;;;;;;;;;;;12.70;99.90;;;;;;5091001;28;19935;-76
2021/12/31 09:17:11;;;;;;;;;;;13.00;99.90;;;;;;5091660;28;19912;-76
2021/12/31 09:19:36;;;;;;;;;;;13.90;99.90;;;;;;5090077;28;19916;-76
2021/12/31 09:22:04;;;;;;;;;;;14.90;99.90;;;;;;5093249;28;20683;-75
2021/12/31 09:24:29;;;;;;;;;;;15.30;99.90;;;;;;5076820;28;19909;-76
2021/12/31 09:26:55;;;;;;;;;;;15.30;99.90;;;;;;5094457;28;19913;-76
2021/12/31 09:29:22;;;;;;;;;;;15.80;99.90;;;;;;5094609;28;19918;-76
2021/12/31 09:31:48;;;;;;;;;;;15.40;99.90;;;;;;5075157;28;19966;-76
2021/12/31 09:34:13;;;;;;;;;;;15.60;99.90;;;;;;5089111;28;19908;-77
2021/12/31 09:36:38;;;;;;;;;;;16.40;99.90;;;;;;5088199;28;19957;-76
2021/12/31 09:39:04;;;;;;;;;;;16.30;99.90;;;;;;5076989;28;20288;-76
2021/12/31 09:41:29;;;;;;;;;;;15.60;99.90;;;;;;5095110;28;19943;-76
2021/12/31 09:43:55;;;;;;;;;;;14.60;99.90;;;;;;5094298;28;19908;-76
2021/12/31 09:46:21;;;;;;;;;;;14.30;99.90;;;;;;5077178;28;20120;-76
2021/12/31 09:48:47;;;;;;;;;;;13.60;99.90;;;;;;5068680;28;20288;-76
2021/12/31 09:51:13;;;;;;;;;;;13.80;99.90;;;;;;5094424;28;19915;-76
2021/12/31 09:53:39;;;;;;;;;;;13.80;99.90;;;;;;5094008;28;20275;-76
2021/12/31 09:56:06;;;;;;;;;;;13.50;99.90;;;;;;5094972;28;19991;-76
2021/12/31 09:58:31;;;;;;;;;;;13.70;99.90;;;;;;5094700;28;19908;-76
2021/12/31 10:01:00;;;;;;;;;;;13.70;99.90;;;;;;5094688;28;20284;-77
2021/12/31 10:03:28;;;;;;;;;;;15.10;99.90;;;;;;5071501;28;20289;-76
2021/12/31 10:05:55;;;;;;;;;;;15.10;99.90;;;;;;5094221;28;20376;-76
2021/12/31 10:08:22;;;;;;;;;;;15.90;99.90;;;;;;5094419;28;19908;-77
2021/12/31 10:11:02;;;;;;;;;;;16.90;99.90;;;;;;5094514;28;19908;-77
2021/12/31 10:13:28;;;;;;;;;;;17.90;99.90;;;;;;5093892;28;19915;-76
2021/12/31 10:15:54;;;;;;;;;;;17.10;99.90;;;;;;5094274;28;19916;-76
2021/12/31 10:18:27;;;;;;;;;;;17.70;99.90;;;;;;5073956;28;19938;-77
2021/12/31 10:20:53;;;;;;;;;;;18.40;99.90;;;;;;5088498;28;19912;-77
2021/12/31 10:23:22;;;;;;;;;;;17.70;99.90;;;;;;5093301;28;19962;-76
2021/12/31 10:25:47;;;;;;;;;;;18.10;99.90;;;;;;5093963;28;19966;-76
2021/12/31 10:28:14;;;;;;;;;;;17.80;99.90;;;;;;5093984;28;20356;-76
2021/12/31 10:30:40;;;;;;;;;;;17.40;99.90;;;;;;5093594;28;19934;-76
2021/12/31 10:33:06;;;;;;;;;;;16.50;99.90;;;;;;5093145;28;19908;-76
2021/12/31 10:35:42;;;;;;;;;;;15.80;99.90;;;;;;5091101;28;19912;-76
2021/12/31 10:38:11;;;;;;;;;;;15.80;99.90;;;;;;5093638;28;19998;-76
2021/12/31 10:40:41;;;;;;;;;;;14.80;99.90;;;;;;5093758;28;19916;-76
2021/12/31 10:43:16;;;;;;;;;;;14.40;99.90;;;;;;5093417;28;20388;-76
2021/12/31 10:45:55;;;;;;;;;;;13.70;99.90;;;;;;5093480;28;20409;-76
2021/12/31 10:48:21;;;;;;;;;;;14.90;99.90;;;;;;5093165;28;19912;-76
2021/12/31 10:50:52;;;;;;;;;;;14.70;99.90;;;;;;5093696;28;20399;-76
2021/12/31 10:53:34;;;;;;;;;;;14.80;99.90;;;;;;5093284;28;19909;-75
2021/12/31 10:56:06;;;;;;;;;;;13.90;99.90;;;;;;5087796;28;20003;-76
2021/12/31 10:58:32;;;;;;;;;;;13.50;99.90;;;;;;5075220;28;19912;-76
2021/12/31 11:00:59;;;;;;;;;;;12.80;99.90;;;;;;5093314;28;19964;-75
2021/12/31 11:03:25;;;;;;;;;;;12.40;99.90;;;;;;5092952;28;19919;-76
2021/12/31 11:05:50;;;;;;;;;;;13.10;99.90;;;;;;5088574;28;19912;-76
2021/12/31 11:08:16;;;;;;;;;;;12.30;99.90;;;;;;5091587;28;19918;-76
2021/12/31 11:10:42;;;;;;;;;;;12.20;99.90;;;;;;5074855;28;19912;-76
2021/12/31 11:13:09;;;;;;;;;;;12.20;99.90;;;;;;5074783;28;19915;-76
2021/12/31 11:15:35;;;;;;;;;;;11.60;99.90;;;;;;5092908;28;20202;-76
2021/12/31 11:18:00;;;;;;;;;;;11.40;99.90;;;;;;5074787;28;20019;-76
2021/12/31 11:20:26;;;;;;;;;;;11.40;99.90;;;;;;5093064;28;19914;-76
2021/12/31 11:22:51;;;;;;;;;;;11.30;99.90;;;;;;5092729;28;19965;-76
2021/12/31 11:25:17;;;;;;;;;;;11.40;99.90;;;;;;5092059;28;20285;-76
2021/12/31 11:27:45;;;;;;;;;;;11.60;99.90;;;;;;5092697;28;20276;-77
2021/12/31 11:30:29;;;;;;;;;;;11.40;99.90;;;;;;5092676;28;20284;-76
2021/12/31 11:32:56;;;;;;;;;;;11.50;99.90;;;;;;5092262;28;19931;-76
2021/12/31 11:35:33;;;;;;;;;;;11.60;99.90;;;;;;5092229;28;19922;-76
2021/12/31 11:37:59;;;;;;;;;;;11.40;99.90;;;;;;5090141;28;20376;-76
2021/12/31 11:40:25;;;;;;;;;;;11.30;99.90;;;;;;5091772;28;19912;-76
2021/12/31 11:43:12;;;;;;;;;;;11.20;99.90;;;;;;5091791;28;19908;-76
2021/12/31 11:45:38;;;;;;;;;;;11.30;99.90;;;;;;5074075;28;19912;-76
2021/12/31 11:48:23;;;;;;;;;;;11.50;99.90;;;;;;5092339;28;19938;-76
2021/12/31 11:51:02;;;;;;;;;;;11.40;99.90;;;;;;5073738;28;19908;-76
2021/12/31 11:53:28;;;;;;;;;;;11.40;99.90;;;;;;5092006;28;19912;-76
2021/12/31 11:55:53;;;;;;;;;;;11.30;99.90;;;;;;5092033;28;20386;-76
2021/12/31 11:58:38;;;;;;;;;;;11.50;99.90;;;;;;5073981;28;20391;-76
2021/12/31 12:01:21;;;;;;;;;;;11.40;99.90;;;;;;5091823;28;19987;-76
2021/12/31 12:03:47;;;;;;;;;;;11.50;99.90;;;;;;5092026;28;20305;-76
2021/12/31 12:06:31;;;;;;;;;;;11.60;99.90;;;;;;5092333;28;19999;-76
2021/12/31 12:08:57;;;;;;;;;;;11.90;99.90;;;;;;5086988;28;19908;-76
2021/12/31 12:11:45;;;;;;;;;;;11.90;99.90;;;;;;5091739;28;20284;-76
2021/12/31 12:14:26;;;;;;;;;;;11.90;99.90;;;;;;5091253;28;19920;-76
2021/12/31 12:16:57;;;;;;;;;;;12.00;99.90;;;;;;5092026;28;19916;-76
2021/12/31 12:19:22;;;;;;;;;;;11.90;99.90;;;;;;5086065;28;19965;-76
2021/12/31 12:21:52;;;;;;;;;;;11.90;99.90;;;;;;5091417;28;20331;-76
2021/12/31 12:24:22;;;;;;;;;;;12.00;99.90;;;;;;5073052;28;20353;-76
2021/12/31 12:26:48;;;;;;;;;;;12.10;99.90;;;;;;5085529;28;19912;-76
2021/12/31 12:29:25;;;;;;;;;;;12.10;99.90;;;;;;5091437;28;19966;-76
2021/12/31 12:32:09;;;;;;;;;;;12.00;99.90;;;;;;5091536;28;19908;-76
2021/12/31 12:34:35;;;;;;;;;;;11.90;99.90;;;;;;5088338;28;19923;-75
2021/12/31 12:37:01;;;;;;;;;;;12.00;99.90;;;;;;5088763;28;20542;-76
2021/12/31 12:39:26;;;;;;;;;;;12.20;99.90;;;;;;5091362;28;20002;-76
2021/12/31 12:41:52;;;;;;;;;;;12.10;99.90;;;;;;5073875;28;19970;-76
2021/12/31 12:44:17;;;;;;;;;;;12.20;99.90;;;;;;5091127;28;19987;-76
2021/12/31 12:46:56;;;;;;;;;;;12.20;99.90;;;;;;5073467;28;20368;-76
2021/12/31 12:49:24;;;;;;;;;;;12.30;99.90;;;;;;5091664;28;20292;-76
2021/12/31 12:51:50;;;;;;;;;;;12.30;99.90;;;;;;5091609;28;19961;-76
2021/12/31 12:54:21;;;;;;;;;;;12.30;99.90;;;;;;5090174;28;19999;-76
2021/12/31 12:56:47;;;;;;;;;;;12.30;99.90;;;;;;5073631;28;19912;-76
2021/12/31 12:59:21;;;;;;;;;;;12.30;99.90;;;;;;5091508;28;19915;-76
2021/12/31 13:01:47;;;;;;;;;;;12.40;99.90;;;;;;5091877;28;19912;-76
2021/12/31 13:04:14;;;;;;;;;;;12.30;99.90;;;;;;5092565;28;19991;-76
2021/12/31 13:06:43;;;;;;;;;;;12.40;99.90;;;;;;5089862;28;20335;-77
2021/12/31 13:09:10;;;;;;;;;;;12.30;99.90;;;;;;5090823;28;19978;-75
2021/12/31 13:11:40;;;;;;;;;;;12.40;99.90;;;;;;5091200;28;20368;-76
2021/12/31 13:14:13;;;;;;;;;;;12.40;99.90;;;;;;5090316;28;19915;-76
2021/12/31 13:16:39;;;;;;;;;;;12.40;99.90;;;;;;5073167;28;19920;-75
2021/12/31 13:19:08;;;;;;;;;;;12.60;99.90;;;;;;5091125;28;19947;-75
2021/12/31 13:21:35;;;;;;;;;;;12.50;99.90;;;;;;5091502;28;19943;-76
2021/12/31 13:24:01;;;;;;;;;;;12.50;99.90;;;;;;5084013;28;19908;-76
2021/12/31 13:26:27;;;;;;;;;;;12.60;99.90;;;;;;5090869;28;19923;-76
2021/12/31 13:28:57;;;;;;;;;;;12.60;99.90;;;;;;5090796;28;19912;-76
2021/12/31 13:31:33;;;;;;;;;;;12.50;99.90;;;;;;5084758;28;19908;-76
2021/12/31 13:34:09;;;;;;;;;;;12.50;99.90;;;;;;5072471;28;20345;-76
2021/12/31 13:36:42;;;;;;;;;;;12.50;99.90;;;;;;5091276;28;19970;-76
2021/12/31 13:39:10;;;;;;;;;;;12.30;99.90;;;;;;5084101;28;19939;-76
2021/12/31 13:41:42;;;;;;;;;;;12.20;99.90;;;;;;5091345;28;20361;-75
2021/12/31 13:44:07;;;;;;;;;;;12.20;99.90;;;;;;5090434;28;19908;-75
2021/12/31 13:46:33;;;;;;;;;;;12.20;99.90;;;;;;5091133;28;19913;-75
2021/12/31 13:49:02;;;;;;;;;;;12.20;99.90;;;;;;5089236;28;19908;-75
2021/12/31 13:51:30;;;;;;;;;;;12.20;99.90;;;;;;5088267;28;19909;-77
2021/12/31 13:53:55;;;;;;;;;;;12.20;99.90;;;;;;5089995;28;19912;-75
2021/12/31 13:56:31;;;;;;;;;;;12.20;99.90;;;;;;5090968;28;19908;-74
2021/12/31 13:58:56;;;;;;;;;;;12.20;99.90;;;;;;5091037;28;19998;-74
2021/12/31 14:01:22;;;;;;;;;;;12.30;99.90;;;;;;5090734;28;19974;-74
2021/12/31 14:04:06;;;;;;;;;;;12.20;99.90;;;;;;5072023;28;19915;-74
2021/12/31 14:06:32;;;;;;;;;;;12.10;99.90;;;;;;5093456;28;19919;-74
2021/12/31 14:08:58;;;;;;;;;;;12.00;99.90;;;;;;5075723;28;20281;-74
2021/12/31 14:11:23;;;;;;;;;;;11.90;99.90;;;;;;5074531;28;19915;-74
2021/12/31 14:13:49;;;;;;;;;;;12.00;99.90;;;;;;5088751;28;19908;-74
2021/12/31 14:16:14;;;;;;;;;;;12.10;99.90;;;;;;5094084;28;19912;-74
2021/12/31 14:18:40;;;;;;;;;;;12.20;99.90;;;;;;5095279;28;19946;-74
2021/12/31 14:21:06;;;;;;;;;;;12.20;99.90;;;;;;5093939;28;19930;-74
2021/12/31 14:23:32;;;;;;;;;;;12.30;99.90;;;;;;5093522;28;19908;-75
2021/12/31 14:25:57;;;;;;;;;;;12.60;99.90;;;;;;5093877;28;19912;-75
2021/12/31 14:28:22;;;;;;;;;;;12.50;99.90;;;;;;5094184;28;19963;-75